sensor_id;sensor_type;location;lat;lon;timestamp;P1;durP1;ratioP1;P2;durP2;ratioP2
61200;SDS011;47065;52.898;6.992;2024-01-06T00:01:40;46.53;;;18.38;;
61200;SDS011;47065;52.898;6.992;2024-01-06T00:04:06;35.90;;;18.27;;
61200;SDS011;47065;52.898;6.992;2024-01-06T00:06:32;43.03;;;20.30;;
61200;SDS011;47065;52.898;6.992;2024-01-06T00:08:57;45.03;;;20.92;;
61200;SDS011;47065;52.898;6.992;2024-01-06T00:11:23;42.75;;;20.48;;
61200;SDS011;47065;52.898;6.992;2024-01-06T00:13:49;44.10;;;20.15;;
61200;SDS011;47065;52.898;6.992;2024-01-06T00:16:18;43.70;;;20.40;;
61200;SDS011;47065;52.898;6.992;2024-01-06T00:18:44;49.92;;;23.20;;
61200;SDS011;47065;52.898;6.992;2024-01-06T00:21:13;52.35;;;21.60;;
61200;SDS011;47065;52.898;6.992;2024-01-06T00:23:42;47.28;;;22.60;;
61200;SDS011;47065;52.898;6.992;2024-01-06T00:26:07;44.97;;;20.90;;
61200;SDS011;47065;52.898;6.992;2024-01-06T00:28:34;49.97;;;23.40;;
61200;SDS011;47065;52.898;6.992;2024-01-06T00:31:00;44.33;;;20.42;;
61200;SDS011;47065;52.898;6.992;2024-01-06T00:33:26;50.70;;;23.90;;
61200;SDS011;47065;52.898;6.992;2024-01-06T00:35:51;40.28;;;22.48;;
61200;SDS011;47065;52.898;6.992;2024-01-06T00:38:17;40.95;;;21.13;;
61200;SDS011;47065;52.898;6.992;2024-01-06T00:40:43;47.63;;;23.80;;
61200;SDS011;47065;52.898;6.992;2024-01-06T00:43:08;44.25;;;22.17;;
61200;SDS011;47065;52.898;6.992;2024-01-06T00:45:34;47.10;;;23.23;;
61200;SDS011;47065;52.898;6.992;2024-01-06T00:48:00;47.08;;;24.02;;
61200;SDS011;47065;52.898;6.992;2024-01-06T00:50:25;41.30;;;22.35;;
61200;SDS011;47065;52.898;6.992;2024-01-06T00:52:51;47.40;;;23.55;;
61200;SDS011;47065;52.898;6.992;2024-01-06T00:55:20;47.22;;;23.45;;
61200;SDS011;47065;52.898;6.992;2024-01-06T00:57:46;43.00;;;22.92;;
61200;SDS011;47065;52.898;6.992;2024-01-06T01:00:12;50.33;;;24.23;;
61200;SDS011;47065;52.898;6.992;2024-01-06T01:02:38;52.63;;;23.83;;
61200;SDS011;47065;52.898;6.992;2024-01-06T01:05:04;47.83;;;23.63;;
61200;SDS011;47065;52.898;6.992;2024-01-06T01:07:32;54.47;;;25.60;;
61200;SDS011;47065;52.898;6.992;2024-01-06T01:09:58;54.35;;;25.65;;
61200;SDS011;47065;52.898;6.992;2024-01-06T01:12:23;46.47;;;23.95;;
61200;SDS011;47065;52.898;6.992;2024-01-06T01:14:49;53.55;;;26.13;;
61200;SDS011;47065;52.898;6.992;2024-01-06T01:17:16;53.42;;;24.95;;
61200;SDS011;47065;52.898;6.992;2024-01-06T01:19:41;47.65;;;25.40;;
61200;SDS011;47065;52.898;6.992;2024-01-06T01:22:07;55.80;;;26.38;;
61200;SDS011;47065;52.898;6.992;2024-01-06T01:24:33;49.33;;;22.27;;
61200;SDS011;47065;52.898;6.992;2024-01-06T01:26:59;54.33;;;24.70;;
61200;SDS011;47065;52.898;6.992;2024-01-06T01:29:24;55.72;;;24.83;;
61200;SDS011;47065;52.898;6.992;2024-01-06T01:31:50;50.42;;;25.60;;
61200;SDS011;47065;52.898;6.992;2024-01-06T01:34:16;56.72;;;25.85;;
61200;SDS011;47065;52.898;6.992;2024-01-06T01:36:41;59.40;;;25.95;;
61200;SDS011;47065;52.898;6.992;2024-01-06T01:39:07;47.47;;;21.60;;
61200;SDS011;47065;52.898;6.992;2024-01-06T01:41:33;45.45;;;22.13;;
61200;SDS011;47065;52.898;6.992;2024-01-06T01:43:58;43.70;;;21.02;;
61200;SDS011;47065;52.898;6.992;2024-01-06T01:46:27;39.55;;;20.65;;
61200;SDS011;47065;52.898;6.992;2024-01-06T01:48:57;49.15;;;22.55;;
61200;SDS011;47065;52.898;6.992;2024-01-06T01:51:26;46.60;;;22.13;;
61200;SDS011;47065;52.898;6.992;2024-01-06T01:53:54;48.30;;;23.67;;
61200;SDS011;47065;52.898;6.992;2024-01-06T01:56:20;49.85;;;23.00;;
61200;SDS011;47065;52.898;6.992;2024-01-06T01:58:46;46.50;;;22.45;;
61200;SDS011;47065;52.898;6.992;2024-01-06T02:01:13;38.30;;;20.35;;
61200;SDS011;47065;52.898;6.992;2024-01-06T02:03:41;41.92;;;21.75;;
61200;SDS011;47065;52.898;6.992;2024-01-06T02:06:10;45.15;;;23.73;;
61200;SDS011;47065;52.898;6.992;2024-01-06T02:08:36;51.40;;;25.13;;
61200;SDS011;47065;52.898;6.992;2024-01-06T02:11:02;53.60;;;26.58;;
61200;SDS011;47065;52.898;6.992;2024-01-06T02:13:35;60.58;;;27.05;;
61200;SDS011;47065;52.898;6.992;2024-01-06T02:16:02;64.13;;;28.48;;
61200;SDS011;47065;52.898;6.992;2024-01-06T02:18:29;57.30;;;26.92;;
61200;SDS011;47065;52.898;6.992;2024-01-06T02:20:59;51.88;;;25.98;;
61200;SDS011;47065;52.898;6.992;2024-01-06T02:23:29;54.17;;;25.05;;
61200;SDS011;47065;52.898;6.992;2024-01-06T02:25:55;55.92;;;26.25;;
61200;SDS011;47065;52.898;6.992;2024-01-06T02:28:21;55.20;;;26.08;;
61200;SDS011;47065;52.898;6.992;2024-01-06T02:30:47;59.33;;;26.13;;
61200;SDS011;47065;52.898;6.992;2024-01-06T02:33:13;56.72;;;25.88;;
61200;SDS011;47065;52.898;6.992;2024-01-06T02:35:39;61.58;;;27.52;;
61200;SDS011;47065;52.898;6.992;2024-01-06T02:38:05;58.20;;;26.90;;
61200;SDS011;47065;52.898;6.992;2024-01-06T02:40:31;58.95;;;25.85;;
61200;SDS011;47065;52.898;6.992;2024-01-06T02:42:57;55.33;;;25.48;;
61200;SDS011;47065;52.898;6.992;2024-01-06T02:45:23;59.10;;;27.73;;
61200;SDS011;47065;52.898;6.992;2024-01-06T02:47:49;56.28;;;26.33;;
61200;SDS011;47065;52.898;6.992;2024-01-06T02:50:15;61.40;;;28.60;;
61200;SDS011;47065;52.898;6.992;2024-01-06T02:52:41;58.33;;;25.77;;
61200;SDS011;47065;52.898;6.992;2024-01-06T02:55:06;57.67;;;26.38;;
61200;SDS011;47065;52.898;6.992;2024-01-06T02:57:32;67.75;;;28.23;;
61200;SDS011;47065;52.898;6.992;2024-01-06T02:59:58;61.00;;;26.33;;
61200;SDS011;47065;52.898;6.992;2024-01-06T03:02:23;63.30;;;27.10;;
61200;SDS011;47065;52.898;6.992;2024-01-06T03:04:49;71.55;;;30.33;;
61200;SDS011;47065;52.898;6.992;2024-01-06T03:07:15;71.03;;;29.00;;
61200;SDS011;47065;52.898;6.992;2024-01-06T03:09:41;73.05;;;29.85;;
61200;SDS011;47065;52.898;6.992;2024-01-06T03:12:07;55.25;;;25.50;;
61200;SDS011;47065;52.898;6.992;2024-01-06T03:14:36;57.00;;;24.77;;
61200;SDS011;47065;52.898;6.992;2024-01-06T03:17:02;62.35;;;26.60;;
61200;SDS011;47065;52.898;6.992;2024-01-06T03:19:28;56.25;;;25.42;;
61200;SDS011;47065;52.898;6.992;2024-01-06T03:21:55;55.67;;;25.27;;
61200;SDS011;47065;52.898;6.992;2024-01-06T03:24:21;72.43;;;27.58;;
61200;SDS011;47065;52.898;6.992;2024-01-06T03:26:48;63.83;;;27.20;;
61200;SDS011;47065;52.898;6.992;2024-01-06T03:29:13;78.43;;;28.90;;
61200;SDS011;47065;52.898;6.992;2024-01-06T03:31:42;58.58;;;26.92;;
61200;SDS011;47065;52.898;6.992;2024-01-06T03:34:09;80.10;;;28.77;;
61200;SDS011;47065;52.898;6.992;2024-01-06T03:36:36;63.67;;;25.02;;
61200;SDS011;47065;52.898;6.992;2024-01-06T03:39:02;46.03;;;21.65;;
61200;SDS011;47065;52.898;6.992;2024-01-06T03:41:28;51.53;;;22.15;;
61200;SDS011;47065;52.898;6.992;2024-01-06T03:43:54;57.22;;;23.80;;
61200;SDS011;47065;52.898;6.992;2024-01-06T03:46:20;54.60;;;24.58;;
61200;SDS011;47065;52.898;6.992;2024-01-06T03:48:46;49.35;;;21.10;;
61200;SDS011;47065;52.898;6.992;2024-01-06T03:51:12;46.85;;;21.98;;
61200;SDS011;47065;52.898;6.992;2024-01-06T03:53:38;51.28;;;21.77;;
61200;SDS011;47065;52.898;6.992;2024-01-06T03:56:05;46.25;;;20.13;;
61200;SDS011;47065;52.898;6.992;2024-01-06T03:58:31;46.28;;;18.30;;
61200;SDS011;47065;52.898;6.992;2024-01-06T04:00:56;59.50;;;23.15;;
61200;SDS011;47065;52.898;6.992;2024-01-06T04:03:22;48.47;;;22.60;;
61200;SDS011;47065;52.898;6.992;2024-01-06T04:05:48;52.78;;;22.02;;
61200;SDS011;47065;52.898;6.992;2024-01-06T04:08:14;46.58;;;21.10;;
61200;SDS011;47065;52.898;6.992;2024-01-06T04:10:39;58.25;;;23.90;;
61200;SDS011;47065;52.898;6.992;2024-01-06T04:13:06;49.67;;;21.23;;
61200;SDS011;47065;52.898;6.992;2024-01-06T04:15:32;52.60;;;22.35;;
61200;SDS011;47065;52.898;6.992;2024-01-06T04:18:01;39.72;;;19.10;;
61200;SDS011;47065;52.898;6.992;2024-01-06T04:20:28;44.15;;;19.85;;
61200;SDS011;47065;52.898;6.992;2024-01-06T04:22:54;47.53;;;20.73;;
61200;SDS011;47065;52.898;6.992;2024-01-06T04:25:19;43.55;;;19.85;;
61200;SDS011;47065;52.898;6.992;2024-01-06T04:27:46;36.67;;;17.95;;
61200;SDS011;47065;52.898;6.992;2024-01-06T04:30:13;30.83;;;16.17;;
61200;SDS011;47065;52.898;6.992;2024-01-06T04:32:39;34.78;;;18.33;;
61200;SDS011;47065;52.898;6.992;2024-01-06T04:35:05;44.80;;;19.98;;
61200;SDS011;47065;52.898;6.992;2024-01-06T04:37:31;47.75;;;20.42;;
61200;SDS011;47065;52.898;6.992;2024-01-06T04:39:57;43.65;;;20.88;;
61200;SDS011;47065;52.898;6.992;2024-01-06T04:42:23;40.47;;;19.65;;
61200;SDS011;47065;52.898;6.992;2024-01-06T04:44:49;48.55;;;20.45;;
61200;SDS011;47065;52.898;6.992;2024-01-06T04:47:15;47.25;;;21.15;;
61200;SDS011;47065;52.898;6.992;2024-01-06T04:49:41;47.78;;;22.30;;
61200;SDS011;47065;52.898;6.992;2024-01-06T04:52:06;53.85;;;23.02;;
61200;SDS011;47065;52.898;6.992;2024-01-06T04:54:32;45.17;;;20.42;;
61200;SDS011;47065;52.898;6.992;2024-01-06T04:56:58;48.40;;;23.17;;
61200;SDS011;47065;52.898;6.992;2024-01-06T04:59:24;46.63;;;20.75;;
61200;SDS011;47065;52.898;6.992;2024-01-06T05:01:50;45.30;;;21.17;;
61200;SDS011;47065;52.898;6.992;2024-01-06T05:04:17;52.95;;;23.15;;
61200;SDS011;47065;52.898;6.992;2024-01-06T05:06:43;44.20;;;20.98;;
61200;SDS011;47065;52.898;6.992;2024-01-06T05:09:08;52.00;;;21.80;;
61200;SDS011;47065;52.898;6.992;2024-01-06T05:11:34;52.53;;;21.15;;
61200;SDS011;47065;52.898;6.992;2024-01-06T05:14:00;46.10;;;20.05;;
61200;SDS011;47065;52.898;6.992;2024-01-06T05:16:25;51.38;;;21.92;;
61200;SDS011;47065;52.898;6.992;2024-01-06T05:18:52;59.92;;;24.00;;
61200;SDS011;47065;52.898;6.992;2024-01-06T05:21:18;44.67;;;20.73;;
61200;SDS011;47065;52.898;6.992;2024-01-06T05:23:44;52.00;;;23.63;;
61200;SDS011;47065;52.898;6.992;2024-01-06T05:26:13;59.25;;;24.85;;
61200;SDS011;47065;52.898;6.992;2024-01-06T05:28:39;48.13;;;23.23;;
61200;SDS011;47065;52.898;6.992;2024-01-06T05:31:05;45.28;;;21.05;;
61200;SDS011;47065;52.898;6.992;2024-01-06T05:33:31;52.47;;;23.33;;
61200;SDS011;47065;52.898;6.992;2024-01-06T05:35:57;46.80;;;21.77;;
61200;SDS011;47065;52.898;6.992;2024-01-06T05:38:22;54.13;;;21.67;;
61200;SDS011;47065;52.898;6.992;2024-01-06T05:40:48;48.13;;;21.73;;
61200;SDS011;47065;52.898;6.992;2024-01-06T05:43:13;46.65;;;21.05;;
61200;SDS011;47065;52.898;6.992;2024-01-06T05:45:39;44.25;;;20.38;;
61200;SDS011;47065;52.898;6.992;2024-01-06T05:48:10;41.25;;;20.50;;
61200;SDS011;47065;52.898;6.992;2024-01-06T05:50:39;49.00;;;20.88;;
61200;SDS011;47065;52.898;6.992;2024-01-06T05:53:05;51.28;;;22.08;;
61200;SDS011;47065;52.898;6.992;2024-01-06T05:55:30;42.70;;;20.42;;
61200;SDS011;47065;52.898;6.992;2024-01-06T05:57:56;48.95;;;22.42;;
61200;SDS011;47065;52.898;6.992;2024-01-06T06:00:22;46.67;;;21.38;;
61200;SDS011;47065;52.898;6.992;2024-01-06T06:02:47;47.92;;;21.30;;
61200;SDS011;47065;52.898;6.992;2024-01-06T06:05:13;52.95;;;23.00;;
61200;SDS011;47065;52.898;6.992;2024-01-06T06:07:39;49.13;;;22.98;;
61200;SDS011;47065;52.898;6.992;2024-01-06T06:10:08;51.05;;;22.50;;
61200;SDS011;47065;52.898;6.992;2024-01-06T06:12:35;51.40;;;22.73;;
61200;SDS011;47065;52.898;6.992;2024-01-06T06:15:01;45.67;;;21.73;;
61200;SDS011;47065;52.898;6.992;2024-01-06T06:17:29;54.65;;;23.27;;
61200;SDS011;47065;52.898;6.992;2024-01-06T06:19:58;56.28;;;22.27;;
61200;SDS011;47065;52.898;6.992;2024-01-06T06:22:24;44.13;;;22.08;;
61200;SDS011;47065;52.898;6.992;2024-01-06T06:25:01;46.10;;;20.85;;
61200;SDS011;47065;52.898;6.992;2024-01-06T06:27:28;44.90;;;21.83;;
61200;SDS011;47065;52.898;6.992;2024-01-06T06:29:54;51.97;;;21.52;;
61200;SDS011;47065;52.898;6.992;2024-01-06T06:32:23;50.50;;;22.42;;
61200;SDS011;47065;52.898;6.992;2024-01-06T06:34:50;47.55;;;21.33;;
61200;SDS011;47065;52.898;6.992;2024-01-06T06:37:15;43.10;;;21.35;;
61200;SDS011;47065;52.898;6.992;2024-01-06T06:39:41;43.38;;;21.08;;
61200;SDS011;47065;52.898;6.992;2024-01-06T06:42:09;40.33;;;19.73;;
61200;SDS011;47065;52.898;6.992;2024-01-06T06:44:35;42.88;;;21.50;;
61200;SDS011;47065;52.898;6.992;2024-01-06T06:47:01;37.33;;;19.13;;
61200;SDS011;47065;52.898;6.992;2024-01-06T06:49:26;42.83;;;19.63;;
61200;SDS011;47065;52.898;6.992;2024-01-06T06:51:52;35.78;;;19.65;;
61200;SDS011;47065;52.898;6.992;2024-01-06T06:54:18;42.75;;;20.17;;
61200;SDS011;47065;52.898;6.992;2024-01-06T06:56:43;39.58;;;19.52;;
61200;SDS011;47065;52.898;6.992;2024-01-06T06:59:10;36.10;;;19.42;;
61200;SDS011;47065;52.898;6.992;2024-01-06T07:01:35;34.65;;;18.70;;
61200;SDS011;47065;52.898;6.992;2024-01-06T07:04:02;36.63;;;18.83;;
61200;SDS011;47065;52.898;6.992;2024-01-06T07:06:28;37.70;;;18.95;;
61200;SDS011;47065;52.898;6.992;2024-01-06T07:08:54;33.47;;;17.80;;
61200;SDS011;47065;52.898;6.992;2024-01-06T07:11:20;32.17;;;18.20;;
61200;SDS011;47065;52.898;6.992;2024-01-06T07:13:46;35.50;;;18.77;;
61200;SDS011;47065;52.898;6.992;2024-01-06T07:16:12;31.80;;;16.98;;
61200;SDS011;47065;52.898;6.992;2024-01-06T07:18:37;31.23;;;18.52;;
61200;SDS011;47065;52.898;6.992;2024-01-06T07:21:04;37.88;;;19.00;;
61200;SDS011;47065;52.898;6.992;2024-01-06T07:23:32;29.60;;;16.88;;
61200;SDS011;47065;52.898;6.992;2024-01-06T07:25:58;32.97;;;16.73;;
61200;SDS011;47065;52.898;6.992;2024-01-06T07:28:24;30.30;;;16.75;;
61200;SDS011;47065;52.898;6.992;2024-01-06T07:30:49;31.35;;;17.00;;
61200;SDS011;47065;52.898;6.992;2024-01-06T07:33:15;32.50;;;17.65;;
61200;SDS011;47065;52.898;6.992;2024-01-06T07:35:41;34.90;;;17.60;;
61200;SDS011;47065;52.898;6.992;2024-01-06T07:38:08;31.02;;;16.63;;
61200;SDS011;47065;52.898;6.992;2024-01-06T07:40:35;35.70;;;19.60;;
61200;SDS011;47065;52.898;6.992;2024-01-06T07:43:01;37.45;;;19.52;;
61200;SDS011;47065;52.898;6.992;2024-01-06T07:45:27;35.92;;;17.95;;
61200;SDS011;47065;52.898;6.992;2024-01-06T07:47:53;34.78;;;17.85;;
61200;SDS011;47065;52.898;6.992;2024-01-06T07:50:18;35.30;;;19.08;;
61200;SDS011;47065;52.898;6.992;2024-01-06T07:52:44;35.08;;;19.02;;
61200;SDS011;47065;52.898;6.992;2024-01-06T07:55:09;35.28;;;19.10;;
61200;SDS011;47065;52.898;6.992;2024-01-06T07:57:35;37.15;;;19.45;;
61200;SDS011;47065;52.898;6.992;2024-01-06T08:00:01;34.85;;;19.20;;
61200;SDS011;47065;52.898;6.992;2024-01-06T08:02:26;35.95;;;17.88;;
61200;SDS011;47065;52.898;6.992;2024-01-06T08:04:52;35.85;;;18.77;;
61200;SDS011;47065;52.898;6.992;2024-01-06T08:07:20;36.15;;;18.05;;
61200;SDS011;47065;52.898;6.992;2024-01-06T08:09:46;39.03;;;20.50;;
61200;SDS011;47065;52.898;6.992;2024-01-06T08:12:12;34.88;;;18.33;;
61200;SDS011;47065;52.898;6.992;2024-01-06T08:14:37;39.30;;;19.75;;
61200;SDS011;47065;52.898;6.992;2024-01-06T08:17:03;36.10;;;19.35;;
61200;SDS011;47065;52.898;6.992;2024-01-06T08:19:29;41.38;;;20.13;;
61200;SDS011;47065;52.898;6.992;2024-01-06T08:21:56;35.08;;;18.48;;
61200;SDS011;47065;52.898;6.992;2024-01-06T08:24:22;43.53;;;19.52;;
61200;SDS011;47065;52.898;6.992;2024-01-06T08:26:48;36.60;;;18.92;;
61200;SDS011;47065;52.898;6.992;2024-01-06T08:29:13;39.13;;;18.67;;
61200;SDS011;47065;52.898;6.992;2024-01-06T08:31:41;34.78;;;18.48;;
61200;SDS011;47065;52.898;6.992;2024-01-06T08:34:07;38.30;;;18.83;;
61200;SDS011;47065;52.898;6.992;2024-01-06T08:36:33;34.78;;;19.25;;
61200;SDS011;47065;52.898;6.992;2024-01-06T08:38:59;44.03;;;19.33;;
61200;SDS011;47065;52.898;6.992;2024-01-06T08:41:25;33.75;;;17.27;;
61200;SDS011;47065;52.898;6.992;2024-01-06T08:43:51;34.50;;;19.02;;
61200;SDS011;47065;52.898;6.992;2024-01-06T08:46:16;37.55;;;17.48;;
61200;SDS011;47065;52.898;6.992;2024-01-06T08:48:42;37.40;;;18.73;;
61200;SDS011;47065;52.898;6.992;2024-01-06T08:51:08;35.85;;;18.10;;
61200;SDS011;47065;52.898;6.992;2024-01-06T08:53:33;37.75;;;18.95;;
61200;SDS011;47065;52.898;6.992;2024-01-06T08:56:01;34.97;;;18.08;;
61200;SDS011;47065;52.898;6.992;2024-01-06T08:58:27;34.97;;;19.52;;
61200;SDS011;47065;52.898;6.992;2024-01-06T09:00:52;33.78;;;18.08;;
61200;SDS011;47065;52.898;6.992;2024-01-06T09:03:18;36.65;;;18.83;;
61200;SDS011;47065;52.898;6.992;2024-01-06T09:05:50;35.03;;;18.60;;
61200;SDS011;47065;52.898;6.992;2024-01-06T09:08:21;32.78;;;19.60;;
61200;SDS011;47065;52.898;6.992;2024-01-06T09:10:46;35.10;;;18.98;;
61200;SDS011;47065;52.898;6.992;2024-01-06T09:13:12;32.63;;;17.25;;
61200;SDS011;47065;52.898;6.992;2024-01-06T09:15:38;31.73;;;16.75;;
61200;SDS011;47065;52.898;6.992;2024-01-06T09:18:04;39.47;;;20.58;;
61200;SDS011;47065;52.898;6.992;2024-01-06T09:20:29;40.72;;;21.83;;
61200;SDS011;47065;52.898;6.992;2024-01-06T09:22:55;36.38;;;19.20;;
61200;SDS011;47065;52.898;6.992;2024-01-06T09:25:21;39.80;;;21.88;;
61200;SDS011;47065;52.898;6.992;2024-01-06T09:27:49;38.13;;;20.30;;
61200;SDS011;47065;52.898;6.992;2024-01-06T09:30:16;37.20;;;21.27;;
61200;SDS011;47065;52.898;6.992;2024-01-06T09:32:41;42.50;;;23.95;;
61200;SDS011;47065;52.898;6.992;2024-01-06T09:35:07;38.65;;;21.05;;
61200;SDS011;47065;52.898;6.992;2024-01-06T09:37:33;37.55;;;21.48;;
61200;SDS011;47065;52.898;6.992;2024-01-06T09:39:58;43.72;;;22.48;;
61200;SDS011;47065;52.898;6.992;2024-01-06T09:42:24;45.42;;;22.48;;
61200;SDS011;47065;52.898;6.992;2024-01-06T09:44:50;40.92;;;22.40;;
61200;SDS011;47065;52.898;6.992;2024-01-06T09:47:16;39.72;;;20.23;;
61200;SDS011;47065;52.898;6.992;2024-01-06T09:49:48;34.30;;;20.33;;
61200;SDS011;47065;52.898;6.992;2024-01-06T09:52:15;35.47;;;19.75;;
61200;SDS011;47065;52.898;6.992;2024-01-06T09:54:48;37.53;;;20.45;;
61200;SDS011;47065;52.898;6.992;2024-01-06T09:57:16;35.47;;;19.10;;
61200;SDS011;47065;52.898;6.992;2024-01-06T09:59:45;40.67;;;21.83;;
61200;SDS011;47065;52.898;6.992;2024-01-06T10:02:15;43.22;;;21.42;;
61200;SDS011;47065;52.898;6.992;2024-01-06T10:04:42;33.80;;;18.30;;
61200;SDS011;47065;52.898;6.992;2024-01-06T10:07:09;37.45;;;19.27;;
61200;SDS011;47065;52.898;6.992;2024-01-06T10:09:38;34.88;;;18.52;;
61200;SDS011;47065;52.898;6.992;2024-01-06T10:12:04;36.20;;;20.98;;
61200;SDS011;47065;52.898;6.992;2024-01-06T10:14:30;32.33;;;18.13;;
61200;SDS011;47065;52.898;6.992;2024-01-06T10:16:55;29.23;;;16.90;;
61200;SDS011;47065;52.898;6.992;2024-01-06T10:19:23;36.03;;;18.17;;
61200;SDS011;47065;52.898;6.992;2024-01-06T10:21:48;31.90;;;19.08;;
61200;SDS011;47065;52.898;6.992;2024-01-06T10:24:16;38.35;;;20.00;;
61200;SDS011;47065;52.898;6.992;2024-01-06T10:26:44;35.13;;;19.33;;
61200;SDS011;47065;52.898;6.992;2024-01-06T10:29:10;32.38;;;18.45;;
61200;SDS011;47065;52.898;6.992;2024-01-06T10:31:37;33.53;;;18.52;;
61200;SDS011;47065;52.898;6.992;2024-01-06T10:34:03;34.97;;;17.77;;
61200;SDS011;47065;52.898;6.992;2024-01-06T10:36:29;34.63;;;19.13;;
61200;SDS011;47065;52.898;6.992;2024-01-06T10:38:56;34.47;;;20.58;;
61200;SDS011;47065;52.898;6.992;2024-01-06T10:41:22;39.17;;;20.08;;
61200;SDS011;47065;52.898;6.992;2024-01-06T10:43:48;31.73;;;19.48;;
61200;SDS011;47065;52.898;6.992;2024-01-06T10:46:16;33.45;;;18.67;;
61200;SDS011;47065;52.898;6.992;2024-01-06T10:48:44;32.17;;;16.83;;
61200;SDS011;47065;52.898;6.992;2024-01-06T10:51:11;31.60;;;18.83;;
61200;SDS011;47065;52.898;6.992;2024-01-06T10:53:41;29.15;;;16.30;;
61200;SDS011;47065;52.898;6.992;2024-01-06T10:56:08;31.35;;;18.15;;
61200;SDS011;47065;52.898;6.992;2024-01-06T10:58:38;28.92;;;17.52;;
61200;SDS011;47065;52.898;6.992;2024-01-06T11:01:15;33.95;;;19.00;;
61200;SDS011;47065;52.898;6.992;2024-01-06T11:03:46;32.70;;;17.83;;
61200;SDS011;47065;52.898;6.992;2024-01-06T11:06:13;29.17;;;17.73;;
61200;SDS011;47065;52.898;6.992;2024-01-06T11:08:46;31.80;;;17.38;;
61200;SDS011;47065;52.898;6.992;2024-01-06T11:11:28;35.72;;;18.63;;
61200;SDS011;47065;52.898;6.992;2024-01-06T11:14:16;31.85;;;18.33;;
61200;SDS011;47065;52.898;6.992;2024-01-06T11:16:49;29.75;;;16.65;;
61200;SDS011;47065;52.898;6.992;2024-01-06T11:24:51;32.08;;;18.23;;
61200;SDS011;47065;52.898;6.992;2024-01-06T11:27:27;32.15;;;18.13;;
61200;SDS011;47065;52.898;6.992;2024-01-06T11:29:54;36.08;;;19.80;;
61200;SDS011;47065;52.898;6.992;2024-01-06T11:34:54;35.50;;;20.42;;
61200;SDS011;47065;52.898;6.992;2024-01-06T11:37:24;34.45;;;19.75;;
61200;SDS011;47065;52.898;6.992;2024-01-06T11:39:58;34.60;;;18.48;;
61200;SDS011;47065;52.898;6.992;2024-01-06T11:42:31;31.95;;;19.23;;
61200;SDS011;47065;52.898;6.992;2024-01-06T11:45:01;28.65;;;17.50;;
61200;SDS011;47065;52.898;6.992;2024-01-06T11:47:28;34.45;;;17.95;;
61200;SDS011;47065;52.898;6.992;2024-01-06T11:49:55;34.83;;;19.38;;
61200;SDS011;47065;52.898;6.992;2024-01-06T11:52:23;33.03;;;17.13;;
61200;SDS011;47065;52.898;6.992;2024-01-06T11:54:50;31.25;;;18.38;;
61200;SDS011;47065;52.898;6.992;2024-01-06T11:57:17;31.25;;;17.38;;
61200;SDS011;47065;52.898;6.992;2024-01-06T11:59:43;31.30;;;17.70;;
61200;SDS011;47065;52.898;6.992;2024-01-06T12:02:12;29.60;;;16.88;;
61200;SDS011;47065;52.898;6.992;2024-01-06T12:04:38;28.45;;;16.85;;
61200;SDS011;47065;52.898;6.992;2024-01-06T12:07:09;28.85;;;16.67;;
61200;SDS011;47065;52.898;6.992;2024-01-06T12:09:38;25.55;;;15.88;;
61200;SDS011;47065;52.898;6.992;2024-01-06T12:12:04;31.35;;;17.83;;
61200;SDS011;47065;52.898;6.992;2024-01-06T12:14:30;30.80;;;16.13;;
61200;SDS011;47065;52.898;6.992;2024-01-06T12:16:57;29.27;;;17.55;;
61200;SDS011;47065;52.898;6.992;2024-01-06T12:19:31;29.17;;;18.75;;
61200;SDS011;47065;52.898;6.992;2024-01-06T12:21:57;34.25;;;18.67;;
61200;SDS011;47065;52.898;6.992;2024-01-06T12:24:23;31.90;;;19.20;;
61200;SDS011;47065;52.898;6.992;2024-01-06T12:26:52;33.15;;;19.48;;
61200;SDS011;47065;52.898;6.992;2024-01-06T12:29:17;31.50;;;18.33;;
61200;SDS011;47065;52.898;6.992;2024-01-06T12:31:44;33.50;;;20.17;;
61200;SDS011;47065;52.898;6.992;2024-01-06T12:34:12;31.85;;;18.80;;
61200;SDS011;47065;52.898;6.992;2024-01-06T12:36:38;32.83;;;20.02;;
61200;SDS011;47065;52.898;6.992;2024-01-06T12:39:04;32.47;;;19.42;;
61200;SDS011;47065;52.898;6.992;2024-01-06T12:41:30;30.80;;;17.33;;
61200;SDS011;47065;52.898;6.992;2024-01-06T12:44:00;30.55;;;19.30;;
61200;SDS011;47065;52.898;6.992;2024-01-06T12:46:26;32.70;;;17.67;;
61200;SDS011;47065;52.898;6.992;2024-01-06T12:48:52;29.10;;;18.17;;
61200;SDS011;47065;52.898;6.992;2024-01-06T12:51:18;26.88;;;17.33;;
61200;SDS011;47065;52.898;6.992;2024-01-06T12:53:43;30.67;;;17.45;;
61200;SDS011;47065;52.898;6.992;2024-01-06T12:56:09;34.20;;;17.83;;
61200;SDS011;47065;52.898;6.992;2024-01-06T12:58:35;28.23;;;16.48;;
61200;SDS011;47065;52.898;6.992;2024-01-06T13:01:00;26.02;;;16.88;;
61200;SDS011;47065;52.898;6.992;2024-01-06T13:03:27;31.30;;;18.17;;
61200;SDS011;47065;52.898;6.992;2024-01-06T13:05:54;31.05;;;18.92;;
61200;SDS011;47065;52.898;6.992;2024-01-06T13:08:19;32.22;;;17.20;;
61200;SDS011;47065;52.898;6.992;2024-01-06T13:10:46;31.33;;;18.08;;
61200;SDS011;47065;52.898;6.992;2024-01-06T13:13:11;31.67;;;18.77;;
61200;SDS011;47065;52.898;6.992;2024-01-06T13:15:37;30.75;;;18.35;;
61200;SDS011;47065;52.898;6.992;2024-01-06T13:18:03;29.92;;;16.75;;
61200;SDS011;47065;52.898;6.992;2024-01-06T13:20:28;31.48;;;17.17;;
61200;SDS011;47065;52.898;6.992;2024-01-06T13:22:54;34.38;;;19.77;;
61200;SDS011;47065;52.898;6.992;2024-01-06T13:25:20;29.60;;;18.23;;
61200;SDS011;47065;52.898;6.992;2024-01-06T13:27:47;31.55;;;19.15;;
61200;SDS011;47065;52.898;6.992;2024-01-06T13:30:12;33.80;;;20.48;;
61200;SDS011;47065;52.898;6.992;2024-01-06T13:32:40;33.95;;;18.65;;
61200;SDS011;47065;52.898;6.992;2024-01-06T13:35:05;29.15;;;18.60;;
61200;SDS011;47065;52.898;6.992;2024-01-06T13:37:32;33.25;;;18.48;;
61200;SDS011;47065;52.898;6.992;2024-01-06T13:39:58;33.60;;;18.95;;
61200;SDS011;47065;52.898;6.992;2024-01-06T13:42:23;31.80;;;19.35;;
61200;SDS011;47065;52.898;6.992;2024-01-06T13:44:49;37.35;;;20.38;;
61200;SDS011;47065;52.898;6.992;2024-01-06T13:47:15;37.03;;;21.48;;
61200;SDS011;47065;52.898;6.992;2024-01-06T13:49:41;31.42;;;18.83;;
61200;SDS011;47065;52.898;6.992;2024-01-06T13:52:07;32.55;;;18.58;;
61200;SDS011;47065;52.898;6.992;2024-01-06T13:54:35;37.15;;;19.65;;
61200;SDS011;47065;52.898;6.992;2024-01-06T13:57:01;34.65;;;19.52;;
61200;SDS011;47065;52.898;6.992;2024-01-06T13:59:27;35.00;;;18.80;;
61200;SDS011;47065;52.898;6.992;2024-01-06T14:01:53;36.53;;;18.42;;
61200;SDS011;47065;52.898;6.992;2024-01-06T14:04:19;37.65;;;19.95;;
61200;SDS011;47065;52.898;6.992;2024-01-06T14:06:45;38.72;;;20.08;;
61200;SDS011;47065;52.898;6.992;2024-01-06T14:09:13;39.78;;;21.38;;
61200;SDS011;47065;52.898;6.992;2024-01-06T14:11:38;38.80;;;20.63;;
61200;SDS011;47065;52.898;6.992;2024-01-06T14:14:04;37.42;;;20.00;;
61200;SDS011;47065;52.898;6.992;2024-01-06T14:16:30;43.08;;;21.00;;
61200;SDS011;47065;52.898;6.992;2024-01-06T14:18:56;40.85;;;21.33;;
61200;SDS011;47065;52.898;6.992;2024-01-06T14:21:22;38.90;;;21.60;;
61200;SDS011;47065;52.898;6.992;2024-01-06T14:23:48;41.13;;;22.05;;
61200;SDS011;47065;52.898;6.992;2024-01-06T14:26:15;36.38;;;21.30;;